createdAt,value
2018-10-06T10:50:08.465Z,99326.062
2018-10-06T10:50:23.553Z,99319.671
2018-10-06T10:50:38.257Z,99322.179
2018-10-06T10:50:53.444Z,99323.96
2018-10-06T10:51:08.397Z,99321.937
2018-10-06T10:51:23.212Z,99320
2018-10-06T10:51:38.561Z,99322.812
2018-10-06T10:51:53.365Z,99321.242
2018-10-06T10:52:08.360Z,99319.375
2018-10-06T10:52:23.378Z,99317.843
2018-10-06T10:52:38.443Z,99319.984
2018-10-06T10:53:10.321Z,99318.367
2018-10-06T10:53:25.324Z,99319.046
2018-10-06T10:53:40.319Z,99317.906
2018-10-06T10:53:55.220Z,99315.343
2018-10-06T10:54:30.406Z,99316.187
2018-10-06T10:54:45.315Z,99312.765
2018-10-06T10:55:00.170Z,99315.203
2018-10-06T10:55:15.080Z,99312.859
2018-10-06T10:55:29.885Z,99312.398
2018-10-06T10:55:45.943Z,99312.515
2018-10-06T10:55:59.848Z,99308.484
2018-10-06T10:56:14.827Z,99309.078
2018-10-06T10:56:29.818Z,99308.625
2018-10-06T10:56:45.012Z,99305.273
2018-10-06T10:56:59.830Z,99306.203
2018-10-06T10:57:15.223Z,99307.851
2018-10-06T10:57:30.167Z,99306.406
2018-10-06T10:57:45.150Z,99303.171
2018-10-06T10:58:00.234Z,99302.687
2018-10-06T10:58:15.233Z,99301.64
2018-10-06T10:58:30.004Z,99302.843
2018-10-06T10:58:44.999Z,99306.632
2018-10-06T10:59:00.031Z,99298.453
2018-10-06T10:59:14.999Z,99296.781
2018-10-06T10:59:30.070Z,99295.125
2018-10-06T10:59:45.236Z,99299.031
2018-10-06T11:00:00.266Z,99299.64
2018-10-06T11:00:15.245Z,99299.234
2018-10-06T11:00:29.908Z,99297.773
2018-10-06T11:00:45.100Z,99294.984
2018-10-06T11:00:59.911Z,99294.843
2018-10-06T11:01:14.977Z,99291.421
2018-10-06T11:01:29.719Z,99291.25
2018-10-06T11:02:04.890Z,99288
2018-10-06T11:02:19.826Z,99288
2018-10-06T11:02:34.763Z,99288
2018-10-06T11:02:50.019Z,99288
2018-10-06T11:03:04.747Z,99288
2018-10-06T11:03:19.925Z,99288
2018-10-06T11:03:34.791Z,99288
2018-10-06T11:03:49.905Z,99288
2018-10-06T11:04:04.893Z,99288
2018-10-06T11:04:19.888Z,99288
2018-10-06T11:04:35.906Z,99288
2018-10-06T11:04:50.091Z,99288
2018-10-06T11:05:04.968Z,99288
2018-10-06T11:05:19.947Z,99288
2018-10-06T11:05:34.956Z,99288
2018-10-06T11:05:49.811Z,99288
2018-10-06T11:06:04.722Z,99288
2018-10-06T11:06:19.945Z,99288
2018-10-06T11:06:34.836Z,99288
2018-10-06T11:06:49.963Z,99288
2018-10-06T11:07:04.678Z,99288
2018-10-06T11:07:19.761Z,99288
2018-10-06T11:07:34.895Z,99288
2018-10-06T11:08:04.700Z,99282
2018-10-06T11:08:19.738Z,99282
2018-10-06T11:08:34.762Z,99282
2018-10-06T11:08:49.746Z,99282
2018-10-06T11:09:04.728Z,99282
2018-10-06T11:09:19.869Z,99282
2018-10-06T11:09:34.627Z,99282
2018-10-06T11:09:49.797Z,99282
2018-10-06T11:10:04.560Z,99282
2018-10-06T11:10:19.668Z,99282
2018-10-06T11:10:33.495Z,99282
2018-10-06T11:10:49.633Z,99282
2018-10-06T11:11:04.628Z,99282
2018-10-06T11:11:19.719Z,99282
2018-10-06T11:11:34.428Z,99282
2018-10-06T11:11:49.554Z,99282
2018-10-06T11:12:04.527Z,99282
2018-10-06T11:12:19.529Z,99282
2018-10-06T11:12:34.560Z,99282
2018-10-06T11:12:49.587Z,99282
2018-10-06T11:13:04.454Z,99282
2018-10-06T11:13:19.593Z,99282
2018-10-06T11:13:33.503Z,99282
2018-10-06T11:13:49.659Z,99282
2018-10-06T11:14:04.514Z,99282
2018-10-06T11:14:19.490Z,99282
2018-10-06T11:14:34.443Z,99282
2018-10-06T11:14:49.399Z,99282
2018-10-06T11:15:04.418Z,99282
2018-10-06T11:15:19.491Z,99282
2018-10-06T11:15:34.335Z,99282
2018-10-06T11:15:49.480Z,99282
2018-10-06T11:16:04.540Z,99282
2018-10-06T11:16:19.428Z,99282
2018-10-06T11:16:34.484Z,99282
2018-10-06T11:16:48.277Z,99282
2018-10-06T11:17:04.407Z,99282
2018-10-06T11:17:19.245Z,99282
2018-10-06T11:17:34.344Z,99282
2018-10-06T11:17:49.349Z,99282
2018-10-06T11:18:04.470Z,99282
2018-10-06T11:18:19.350Z,99282
2018-10-06T11:18:34.295Z,99282
2018-10-06T11:18:49.372Z,99282
2018-10-06T11:19:04.180Z,99282
2018-10-06T11:19:19.285Z,99282
2018-10-06T11:19:34.294Z,99282
2018-10-06T11:19:49.093Z,99282
2018-10-06T11:20:04.300Z,99282
2018-10-06T11:20:19.443Z,99282
2018-10-06T11:20:34.064Z,99282
2018-10-06T11:20:49.306Z,99282
2018-10-06T11:21:04.134Z,99282
2018-10-06T11:21:19.275Z,99282
2018-10-06T11:21:34.319Z,99282
2018-10-06T11:21:49.063Z,99282
2018-10-06T11:22:03.829Z,99282
2018-10-06T11:22:18.789Z,99282
2018-10-06T11:22:33.781Z,99282
2018-10-06T11:22:48.779Z,99282
2018-10-06T11:23:03.793Z,99282
2018-10-06T11:37:15.297Z,99231
2018-10-06T11:37:30.480Z,99231
2018-10-06T11:37:45.061Z,99231
2018-10-06T11:37:59.847Z,99231
2018-10-06T11:38:14.996Z,99231
2018-10-06T11:38:29.556Z,99231
2018-10-06T11:38:44.595Z,99231
2018-10-06T11:38:59.790Z,99231
2018-10-06T11:39:14.802Z,99231
2018-10-06T11:39:29.934Z,99231
2018-10-06T11:39:44.817Z,99231
2018-10-06T11:40:00.759Z,99231
2018-10-06T11:40:14.574Z,99231
2018-10-06T11:40:29.581Z,99231
2018-10-06T11:40:44.690Z,99231
2018-10-06T11:41:21.226Z,99227.406
2018-10-06T11:41:36.090Z,99225.671
2018-10-06T11:41:51.153Z,99227.07
2018-10-06T11:42:06.240Z,99225.578
2018-10-06T11:42:21.203Z,99224.937
2018-10-06T11:42:36.069Z,99229.593
2018-10-06T11:42:50.881Z,99226.421
2018-10-06T11:43:05.995Z,99227.203
2018-10-06T11:43:22.177Z,99225.468
2018-10-06T11:43:35.845Z,99223.132
2018-10-06T11:43:51.018Z,99223.437
2018-10-06T11:44:05.913Z,99220.375
2018-10-06T11:44:20.776Z,99222.703
2018-10-06T11:44:35.739Z,99221.64
2018-10-06T11:44:50.801Z,99223.921
2018-10-06T11:45:05.791Z,99222.421
2018-10-06T11:45:21.080Z,99224.148
2018-10-06T11:45:35.667Z,99224.968
2018-10-06T11:45:50.755Z,99220.812
2018-10-06T11:46:05.925Z,99224.156
2018-10-06T11:46:20.623Z,99220.593
2018-10-06T11:46:35.716Z,99223.64
2018-10-06T11:46:50.819Z,99223.007
2018-10-06T11:47:05.476Z,99220.054
2018-10-06T11:47:20.762Z,99218.125
2018-10-06T11:47:35.781Z,99226.375
2018-10-06T11:47:51.547Z,99226.609
2018-10-06T11:48:05.596Z,99225.789
2018-10-06T11:48:20.555Z,99225.914
2018-10-06T11:48:35.373Z,99228.125
2018-10-06T11:48:50.337Z,99224.312
2018-10-06T11:49:06.328Z,99223.296
2018-10-06T11:49:20.300Z,99225.406
2018-10-06T11:49:35.376Z,99223.585
2018-10-06T11:49:50.579Z,99222.976
2018-10-06T11:50:05.278Z,99219.937
2018-10-06T11:50:20.282Z,99222.007
2018-10-06T11:50:35.267Z,99218.195
2018-10-06T11:50:50.223Z,99221.179
2018-10-06T11:51:05.200Z,99221.812
2018-10-06T11:51:20.163Z,99217.984
2018-10-06T11:51:35.236Z,99217.64
2018-10-06T11:51:50.169Z,99217.125
2018-10-06T11:52:05.148Z,99220.671
2018-10-06T11:52:20.327Z,99214.773
2018-10-06T11:52:35.208Z,99216.085
2018-10-06T11:52:50.061Z,99218.437
2018-10-06T11:53:05.080Z,99215.046
2018-10-06T11:53:20.359Z,99214.671
2018-10-06T11:53:35.299Z,99214.89
2018-10-06T11:53:49.987Z,99210.671
2018-10-06T11:54:05.017Z,99211.64
2018-10-06T11:54:19.948Z,99210.523
2018-10-06T11:54:35.123Z,99216.062
2018-10-06T11:54:50.246Z,99214.218
2018-10-06T11:55:05.163Z,99217.75
2018-10-06T11:55:20.195Z,99212.507
2018-10-06T11:55:35.238Z,99211.578
2018-10-06T11:55:50.231Z,99211.054
2018-10-06T11:56:05.147Z,99209.437
2018-10-06T11:56:19.963Z,99209.218
2018-10-06T11:56:34.813Z,99206.351
2018-10-06T11:56:49.773Z,99207.492
2018-10-06T11:57:05.100Z,99208.328
2018-10-06T11:57:19.905Z,99209.906
2018-10-06T11:57:35.201Z,99210.578
2018-10-06T11:57:49.781Z,99213.125
2018-10-06T11:58:04.718Z,99207.531
2018-10-06T11:58:19.662Z,99206.671
2018-10-06T11:58:34.707Z,99206.968
2018-10-06T11:58:49.631Z,99203.515
2018-10-06T11:59:04.625Z,99207.929
2018-10-06T11:59:19.600Z,99206.062
2018-10-06T11:59:34.583Z,99202.687
2018-10-06T11:59:49.593Z,99207.812
2018-10-06T12:00:04.702Z,99204.812
2018-10-06T12:00:19.758Z,99205.859
2018-10-06T12:00:34.596Z,99199.773
2018-10-06T12:00:49.696Z,99203.671
2018-10-06T12:01:04.659Z,99204.328
2018-10-06T12:01:19.725Z,99203.734
2018-10-06T12:01:34.611Z,99203.062
2018-10-06T12:01:49.627Z,99205.992
2018-10-06T12:02:04.644Z,99198.64
2018-10-06T12:02:20.235Z,99201.531
2018-10-06T12:02:34.472Z,99202.14
2018-10-06T12:02:49.535Z,99200.367
2018-10-06T12:03:04.630Z,99202.546
2018-10-06T12:03:19.419Z,99203.828
2018-10-06T12:03:34.482Z,99203.546
2018-10-06T12:03:49.505Z,99203.906
2018-10-06T12:04:04.372Z,99199.375
2018-10-06T12:04:19.301Z,99200.226
2018-10-06T12:04:34.443Z,99204.421
2018-10-06T12:04:49.409Z,99202.796
2018-10-06T12:05:04.308Z,99199.906
2018-10-06T12:05:19.181Z,99197.945
2018-10-06T12:05:34.563Z,99201.937
2018-10-06T12:05:49.537Z,99197.015
2018-10-06T12:06:04.137Z,99198.867
2018-10-06T12:06:19.287Z,99191.593
2018-10-06T12:06:34.354Z,99195.867
2018-10-06T12:06:49.116Z,99192.453
2018-10-06T12:07:04.198Z,99193.187
2018-10-06T12:07:20.026Z,99197.359
2018-10-06T12:07:34.211Z,99190.093
2018-10-06T12:07:49.172Z,99193.578
2018-10-06T12:08:04.166Z,99192.82
2018-10-06T12:08:19.567Z,99194.007
2018-10-06T12:08:34.724Z,99192.89
2018-10-06T12:08:48.987Z,99193.109
2018-10-06T12:09:03.988Z,99194.71
2018-10-06T12:09:18.972Z,99193.453
2018-10-06T12:09:34.065Z,99190.734
2018-10-06T12:09:48.996Z,99192.281
2018-10-06T12:10:03.897Z,99193.546
2018-10-06T12:10:19.081Z,99188.375
2018-10-06T12:10:33.947Z,99188.296
2018-10-06T12:10:48.912Z,99190.992
2018-10-06T12:11:04.020Z,99188.671
2018-10-06T12:11:19.763Z,99188.734
2018-10-06T12:11:34.044Z,99187.671
2018-10-06T12:11:48.750Z,99186.148
2018-10-06T12:12:03.777Z,99186.437
2018-10-06T12:12:18.678Z,99188.125
2018-10-06T12:12:33.911Z,99185.906
2018-10-06T12:12:48.826Z,99184.953
2018-10-06T12:13:03.948Z,99184.765
2018-10-06T12:13:18.867Z,99188.031
2018-10-06T12:13:33.857Z,99184.921
2018-10-06T12:13:48.552Z,99181.328
2018-10-06T12:14:03.599Z,99182.515
2018-10-06T12:14:18.576Z,99183.015
2018-10-06T12:14:33.703Z,99181.765
2018-10-06T12:14:48.470Z,99182.328
2018-10-06T12:15:03.497Z,99184.703
2018-10-06T12:15:18.489Z,99183.007
2018-10-06T12:15:33.533Z,99179.953
2018-10-06T12:15:48.411Z,99180.812
2018-10-06T12:16:03.682Z,99179.593
2018-10-06T12:16:18.532Z,99179.351
2018-10-06T12:16:33.776Z,99182.843
2018-10-06T12:16:48.425Z,99184.328
2018-10-06T12:17:03.436Z,99178.82
2018-10-06T12:17:18.364Z,99179.664
2018-10-06T12:17:33.545Z,99177.828
2018-10-06T12:17:48.384Z,99178.656
2018-10-06T12:18:04.288Z,99178.218
2018-10-06T12:18:18.193Z,99176.382
2018-10-06T12:18:33.724Z,99176.843
2018-10-06T12:18:48.005Z,99180.773
2018-10-06T12:19:03.136Z,99173.312
2018-10-06T12:19:19.072Z,99173.234
2018-10-06T12:19:32.977Z,99178.492
2018-10-06T12:19:48.945Z,99177.671
2018-10-06T12:20:03.044Z,99173.671
2018-10-06T12:20:17.951Z,99172.64
2018-10-06T12:20:33.075Z,99174.875
